Time;durP1;ratioP1;P1;durP2;ratioP2;P2;SDS_P1;SDS_P2;PMS_P1;PMS_P2;Temp;Humidity;BMP_temperature;BMP_pressure;BME280_temperature;BME280_humidity;BME280_pressure;Samples;Min_cycle;Max_cycle;Signal;HPM_P1;HPM_P2
2022/11/14 08:34:38;;;;;;;;;9.00;6.00;;;;;18.77;43.76;100695.84;5057957;28;45838;-55
2022/11/14 08:37:04;;;;;;;;;6.25;5.00;;;;;18.75;44.04;100698.56;5077104;28;44740;-56
2022/11/14 08:39:30;;;;;;;;;6.00;6.00;;;;;18.76;44.11;100702.00;5065278;28;45406;-56
2022/11/14 08:41:55;;;;;;;;;7.25;6.25;;;;;18.75;43.57;100706.44;5059065;28;48639;-55
2022/11/14 08:44:20;;;;;;;;;8.00;7.00;;;;;18.76;43.55;100696.75;5058783;28;45404;-56
2022/11/14 08:46:46;;;;;;;;;6.00;6.00;;;;;18.75;43.68;100698.56;5061421;28;45382;-56
2022/11/14 08:49:11;;;;;;;;;7.25;6.25;;;;;18.76;43.98;100697.63;5061379;28;50715;-56
2022/11/14 08:51:36;;;;;;;;;4.50;4.50;;;;;18.76;43.57;100709.91;5058397;28;63256;-55
2022/11/14 08:54:02;;;;;;;;;8.75;6.00;;;;;18.75;43.96;100709.06;5058447;28;45430;-55
2022/11/14 08:56:27;;;;;;;;;6.25;6.25;;;;;18.76;43.73;100718.63;5058650;28;45354;-55
2022/11/14 08:58:52;;;;;;;;;6.50;6.50;;;;;18.76;43.49;100709.91;5058464;28;45478;-55
2022/11/14 09:01:18;;;;;;;;;5.75;5.75;;;;;18.77;43.43;100714.22;5057936;28;46731;-56
2022/11/14 09:03:43;;;;;;;;;6.50;5.50;;;;;18.76;43.95;100718.63;5058251;28;45366;-55
2022/11/14 09:06:09;;;;;;;;;7.00;5.50;;;;;18.75;43.76;100716.94;5058606;28;45732;-55
2022/11/14 09:08:34;;;;;;;;;6.00;6.00;;;;;18.76;43.50;100713.38;5059542;28;45459;-55
2022/11/14 09:11:02;;;;;;;;;5.50;5.00;;;;;18.77;43.62;100711.59;5070939;28;45200;-55
2022/11/14 09:13:30;;;;;;;;;6.75;6.75;;;;;18.77;43.41;100720.34;5066119;28;45818;-55
2022/11/14 09:15:56;;;;;;;;;7.00;5.75;;;;;18.75;43.50;100711.69;5059033;28;45348;-55
2022/11/14 09:18:21;;;;;;;;;5.75;5.75;;;;;18.77;43.59;100715.09;5060617;28;45521;-55
2022/11/14 09:20:47;;;;;;;;;6.00;6.00;;;;;18.77;43.44;100716.84;5059109;28;45418;-56
2022/11/14 09:23:12;;;;;;;;;6.25;6.25;;;;;18.76;43.69;100708.13;5058519;28;45394;-55
2022/11/14 09:25:37;;;;;;;;;5.33;5.00;;;;;18.76;43.47;100708.13;5058674;28;45401;-55
2022/11/14 09:28:08;;;;;;;;;7.00;6.00;;;;;18.79;43.88;100712.38;5058458;28;47891;-54
2022/11/14 09:30:34;;;;;;;;;7.00;7.00;;;;;18.78;43.41;100714.16;5058115;28;45589;-54
2022/11/14 09:33:03;;;;;;;;;7.00;7.00;;;;;18.79;43.68;100715.00;5058775;28;45356;-54
2022/11/14 09:35:30;;;;;;;;;7.50;6.50;;;;;18.78;43.46;100716.78;5059355;28;45286;-54
2022/11/14 09:38:03;;;;;;;;;7.50;7.50;;;;;18.78;43.65;100702.78;5066396;28;45532;-55
2022/11/14 09:40:39;;;;;;;;;8.00;6.25;;;;;18.77;43.65;100709.84;5073230;28;48421;-56
2022/11/14 09:43:22;;;;;;;;;8.00;7.25;;;;;18.78;43.61;100705.41;5071075;28;45741;-54
2022/11/14 09:45:51;;;;;;;;;6.75;6.75;;;;;18.77;43.22;100699.34;5064979;28;45252;-55
2022/11/14 09:48:20;;;;;;;;;8.00;7.25;;;;;18.77;43.55;100698.47;5063124;28;45547;-56
2022/11/14 09:51:04;;;;;;;;;6.50;5.75;;;;;18.77;43.75;100699.34;5058841;28;45620;-55
2022/11/14 09:53:35;;;;;;;;;5.75;5.75;;;;;18.77;43.84;100699.34;5058755;28;45817;-55
2022/11/14 09:56:01;;;;;;;;;7.25;7.25;;;;;18.76;43.92;100696.75;5057729;28;45346;-55
2022/11/14 09:58:26;;;;;;;;;8.25;7.00;;;;;18.77;43.82;100696.72;5056746;28;45519;-55
2022/11/14 10:01:04;;;;;;;;;6.75;6.75;;;;;18.77;43.34;100695.84;5057697;28;46207;-55
2022/11/14 10:03:41;;;;;;;;;6.50;6.00;;;;;18.76;43.69;100692.38;5057696;28;45350;-55
2022/11/14 10:06:34;;;;;;;;;6.25;6.00;;;;;18.77;43.75;100698.47;5057519;28;45531;-55
2022/11/14 10:09:15;;;;;;;;;9.50;7.00;;;;;18.75;43.62;100697.69;5057924;28;45421;-55
2022/11/14 10:11:54;;;;;;;;;8.75;5.50;;;;;18.76;43.96;100712.53;5057571;28;46405;-55
2022/11/14 10:14:22;;;;;;;;;7.75;6.50;;;;;18.75;43.64;100710.81;5057560;28;45956;-55
2022/11/14 10:17:02;;;;;;;;;6.25;6.25;;;;;18.75;43.63;100709.06;5061408;28;45546;-55
2022/11/14 10:19:33;;;;;;;;;8.75;7.00;;;;;18.76;43.36;100708.13;5077342;28;45224;-55
2022/11/14 10:22:05;;;;;;;;;7.00;7.00;;;;;18.77;43.55;100699.34;5069361;28;46277;-56
2022/11/14 10:24:47;;;;;;;;;6.75;6.25;;;;;18.75;43.42;100706.44;5068614;28;45229;-56
2022/11/14 10:27:21;;;;;;;;;7.00;7.00;;;;;18.77;43.47;100699.34;5077779;28;44617;-55
2022/11/14 10:29:47;;;;;;;;;9.00;7.50;;;;;18.76;43.69;100688.88;5078409;28;44725;-59
2022/11/14 10:32:31;;;;;;;;;10.25;8.25;;;;;18.78;43.39;100693.16;5069228;28;45658;-56
2022/11/14 10:34:59;;;;;;;;;7.00;7.00;;;;;18.77;43.50;100687.97;5073114;28;45200;-56
2022/11/14 10:38:01;;;;;;;;;7.50;7.50;;;;;18.78;43.53;100679.16;5062961;28;45362;-56
2022/11/14 10:40:39;;;;;;;;;7.00;7.00;;;;;18.78;43.64;100668.66;5033253;28;45492;-56
2022/11/14 10:43:27;;;;;;;;;7.75;7.75;;;;;18.79;43.41;100671.22;5056670;28;46995;-55
2022/11/14 10:45:55;;;;;;;;;8.00;7.00;;;;;18.79;43.35;100671.22;5056622;28;45342;-54
2022/11/14 10:48:28;;;;;;;;;8.00;6.00;;;;;18.79;43.25;100671.22;5057104;28;45209;-55
2022/11/14 10:51:03;;;;;;;;;11.00;7.50;;;;;18.79;43.54;100671.22;5057245;28;45678;-55
2022/11/14 10:53:40;;;;;;;;;7.25;7.25;;;;;18.79;43.82;100668.59;5056650;28;46201;-55
2022/11/14 10:56:11;;;;;;;;;8.00;6.25;;;;;18.79;43.80;100663.34;5056825;28;45328;-56
2022/11/14 10:58:37;;;;;;;;;9.00;7.25;;;;;18.80;43.77;100667.66;5058057;28;45354;-54
2022/11/14 11:01:35;;;;;;;;;7.25;6.00;;;;;18.80;43.52;100662.41;5056991;28;45484;-56
2022/11/14 11:04:26;;;;;;;;;7.00;7.00;;;;;18.82;43.80;100663.19;5056827;28;45444;-55
2022/11/14 11:06:57;;;;;;;;;7.00;6.50;;;;;18.80;43.75;100659.78;5048216;28;45334;-55
2022/11/14 11:12:19;;;;;;;;;8.00;7.00;;;;;18.81;43.87;100658.84;5057128;28;45407;-55
2022/11/14 11:14:47;;;;;;;;;10.75;9.00;;;;;18.82;43.26;100651.84;5056610;28;46257;-55
2022/11/14 11:17:21;;;;;;;;;6.25;6.25;;;;;18.82;43.47;100655.28;5055918;28;45823;-55
2022/11/14 11:19:48;;;;;;;;;8.00;8.00;;;;;18.82;43.47;100644.78;5056258;28;45302;-55
2022/11/14 11:22:36;;;;;;;;;8.00;8.00;;;;;18.83;43.81;100643.88;5057272;28;45394;-54
2022/11/14 11:25:20;;;;;;;;;9.75;8.00;;;;;18.82;43.57;100636.91;5056132;28;45398;-55
2022/11/14 11:28:02;;;;;;;;;7.75;7.75;;;;;18.82;43.71;100629.03;5056753;28;45451;-55
2022/11/14 11:30:27;;;;;;;;;11.25;8.00;;;;;18.83;43.45;100633.38;5057902;28;45327;-54
2022/11/14 11:32:52;;;;;;;;;8.00;8.00;;;;;18.84;43.57;100634.22;5056300;28;45478;-55
2022/11/14 11:35:18;;;;;;;;;9.00;7.25;;;;;18.82;43.76;100623.78;5056660;28;46269;-54
2022/11/14 11:37:56;;;;;;;;;7.50;7.50;;;;;18.85;43.79;100625.44;5059145;28;45478;-54
2022/11/14 11:40:24;;;;;;;;;7.00;7.00;;;;;18.85;43.19;100612.31;5064814;28;45359;-55
2022/11/14 11:43:24;;;;;;;;;9.75;6.25;;;;;18.84;43.46;100615.84;5078525;28;44827;-54
2022/11/14 11:45:53;;;;;;;;;10.25;8.75;;;;;18.85;43.39;100610.50;5069792;28;45708;-55
2022/11/14 11:48:20;;;;;;;;;10.00;8.75;;;;;18.85;43.91;100610.50;5070015;28;45257;-55
2022/11/14 11:50:47;;;;;;;;;7.25;7.25;;;;;18.84;43.54;100597.47;5070312;28;45365;-56
2022/11/14 11:53:18;;;;;;;;;7.00;6.00;;;;;18.84;43.39;100589.59;5063630;28;45440;-56
2022/11/14 11:55:51;;;;;;;;;11.25;9.25;;;;;18.85;43.24;100594.75;5060465;28;47411;-54
2022/11/14 11:58:31;;;;;;;;;9.25;7.50;;;;;18.85;43.63;100589.50;5059976;28;45177;-55
2022/11/14 12:00:57;;;;;;;;;9.25;9.25;;;;;18.83;43.65;100583.47;5059672;28;45307;-55
2022/11/14 12:03:25;;;;;;;;;10.50;10.00;;;;;18.85;43.51;100580.78;5059943;28;45401;-56
2022/11/14 12:06:08;;;;;;;;;12.00;10.00;;;;;18.87;43.80;100578.06;5059422;28;46391;-57
2022/11/14 12:08:56;;;;;;;;;8.00;8.00;;;;;18.87;43.60;100578.06;5059422;28;45709;-56
2022/11/14 12:11:25;;;;;;;;;11.25;9.50;;;;;18.87;43.39;100567.56;5060703;28;45327;-56
2022/11/14 12:14:24;;;;;;;;;16.25;9.50;;;;;18.87;43.92;100573.66;5072326;28;45607;-56
2022/11/14 12:17:02;;;;;;;;;13.00;10.50;;;;;18.89;43.59;100568.34;5075571;28;45374;-56
2022/11/14 12:19:52;;;;;;;;;13.75;13.00;;;;;18.89;43.88;100560.47;5061271;28;45754;-56
2022/11/14 12:22:48;;;;;;;;;19.25;13.25;;;;;18.90;43.78;100567.41;5059824;28;45378;-56
2022/11/14 12:25:39;;;;;;;;;14.50;12.50;;;;;18.93;44.33;100562.88;5059784;28;45334;-54
2022/11/14 12:28:38;;;;;;;;;14.75;12.00;;;;;18.98;44.04;100552.13;5058363;28;45788;-54
2022/11/14 12:31:08;;;;;;;;;14.00;11.75;;;;;19.08;44.15;100553.31;5059131;28;46409;-55
2022/11/14 12:33:44;;;;;;;;;16.00;11.75;;;;;19.13;43.63;100548.66;5060000;28;45339;-54
2022/11/14 12:36:11;;;;;;;;;15.00;11.25;;;;;19.16;43.52;100553.75;5083042;28;44781;-55
2022/11/14 12:38:45;;;;;;;;;14.00;9.25;;;;;19.16;43.55;100545.88;5071496;28;45398;-56
2022/11/14 12:41:11;;;;;;;;;11.25;9.50;;;;;19.15;43.68;100540.72;5058415;28;45318;-55
2022/11/14 12:43:43;;;;;;;;;13.50;11.25;;;;;19.17;43.65;100538.84;5059843;28;45346;-53
2022/11/14 12:46:11;;;;;;;;;15.50;12.00;;;;;19.18;44.03;100535.31;5059537;28;45212;-56
2022/11/14 12:48:42;;;;;;;;;10.25;8.50;;;;;19.19;43.71;100536.97;5078919;28;47250;-55
2022/11/14 12:51:33;;;;;;;;;12.75;10.25;;;;;19.17;43.60;100538.84;5082413;28;45832;-56
2022/11/14 12:54:01;;;;;;;;;11.50;10.25;;;;;19.16;43.55;100538.00;5054240;28;45382;-56
2022/11/14 12:56:29;;;;;;;;;11.50;11.50;;;;;19.14;44.14;100534.59;5058510;28;45185;-56
2022/11/14 12:59:28;;;;;;;;;9.25;8.00;;;;;19.15;44.05;100538.91;5057191;28;46252;-55
2022/11/14 13:02:15;;;;;;;;;12.50;11.25;;;;;19.13;44.25;100532.06;5057695;28;45363;-55
2022/11/14 13:05:07;;;;;;;;;13.00;11.50;;;;;19.12;44.39;100535.63;5058804;28;45554;-55
2022/11/14 13:07:44;;;;;;;;;11.25;10.75;;;;;19.09;44.86;100526.13;5063469;28;45521;-54
2022/11/14 13:10:30;;;;;;;;;11.00;9.50;;;;;19.10;45.55;100529.59;5060614;28;46203;-56
2022/11/14 13:22:10;;;;;;;;;14.75;12.25;;;;;19.10;46.40;100521.72;5058375;28;45276;-55
2022/11/14 13:24:57;;;;;;;;;17.50;12.00;;;;;19.10;47.83;100527.84;5061451;28;45287;-55
2022/11/14 13:27:34;;;;;;;;;16.25;13.25;;;;;19.09;47.79;100507.75;5071064;28;45216;-56
2022/11/14 13:30:01;;;;;;;;;17.00;13.25;;;;;19.06;47.67;100507.91;5061916;28;45334;-56
2022/11/14 13:32:43;;;;;;;;;13.00;13.00;;;;;19.07;47.67;100512.22;5056905;28;45338;-55
2022/11/14 13:35:22;;;;;;;;;14.50;13.25;;;;;19.05;47.67;100498.31;5056987;28;45238;-55
2022/11/14 13:38:25;;;;;;;;;14.25;11.75;;;;;19.06;47.61;100504.44;5058227;28;45319;-55
2022/11/14 13:40:53;;;;;;;;;15.50;13.75;;;;;19.03;47.63;100499.34;5061503;28;45282;-54
2022/11/14 13:43:49;;;;;;;;;13.25;12.50;;;;;19.00;47.98;100495.94;5057034;28;46252;-55
2022/11/14 13:46:32;;;;;;;;;18.50;13.50;;;;;19.00;47.47;100492.50;5056721;28;45878;-52
2022/11/14 13:49:07;;;;;;;;;14.25;14.25;;;;;18.99;47.58;100488.16;5056740;28;45251;-56
2022/11/14 13:51:33;;;;;;;;;15.75;12.25;;;;;19.00;47.64;100489.88;5056963;28;45668;-55
2022/11/14 13:53:58;;;;;;;;;13.75;11.50;;;;;19.00;47.63;100490.69;5056675;28;46085;-56
2022/11/14 13:56:58;;;;;;;;;16.00;14.00;;;;;19.00;47.44;100485.44;5056396;28;60238;-55
2022/11/14 13:59:45;;;;;;;;;13.50;11.50;;;;;19.01;47.18;100478.44;5056629;28;45240;-56
2022/11/14 14:02:10;;;;;;;;;13.50;13.50;;;;;18.99;47.21;100475.88;5057607;28;45644;-56
2022/11/14 14:04:57;;;;;;;;;14.25;13.25;;;;;19.00;47.50;100463.59;5071755;28;45420;-56
2022/11/14 14:07:25;;;;;;;;;15.75;12.75;;;;;18.98;47.01;100450.53;5049709;28;45880;-57
2022/11/14 14:10:29;;;;;;;;;15.25;11.50;;;;;18.99;47.27;100451.41;5059471;28;45759;-56
2022/11/14 14:13:14;;;;;;;;;15.00;12.75;;;;;19.00;47.44;100451.31;5059336;28;45236;-56
2022/11/14 14:15:44;;;;;;;;;17.50;12.25;;;;;18.99;47.44;100454.03;5056529;28;46125;-57
2022/11/14 14:18:27;;;;;;;;;13.25;12.25;;;;;18.99;47.61;100462.72;5056396;28;45437;-57
2022/11/14 14:20:57;;;;;;;;;14.25;12.75;;;;;18.99;47.33;100467.16;5056769;28;45327;-57
2022/11/14 14:23:22;;;;;;;;;11.00;11.00;;;;;18.98;47.37;100461.03;5065527;28;45536;-55
2022/11/14 14:26:03;;;;;;;;;12.00;10.67;;;;;18.98;47.07;100454.94;5069163;28;45251;-56
2022/11/14 14:28:48;;;;;;;;;13.75;11.75;;;;;18.98;47.08;100450.53;5070412;28;45330;-55
2022/11/14 14:31:23;;;;;;;;;16.25;12.50;;;;;18.98;47.15;100453.16;5078055;28;45335;-55
2022/11/14 14:33:50;;;;;;;;;14.50;13.50;;;;;18.98;47.08;100444.44;5056623;28;45501;-56
2022/11/14 14:36:15;;;;;;;;;14.00;8.75;;;;;18.97;46.76;100448.00;5055977;28;45400;-56
2022/11/14 14:38:41;;;;;;;;;12.25;10.75;;;;;18.98;47.44;100444.44;5056009;28;45336;-56
2022/11/14 14:41:07;;;;;;;;;12.75;12.25;;;;;18.96;47.49;100441.88;5056687;28;45431;-56
2022/11/14 14:43:33;;;;;;;;;13.25;12.25;;;;;18.97;47.35;100450.63;5061929;28;45335;-56
2022/11/14 14:46:00;;;;;;;;;10.00;9.25;;;;;18.97;47.45;100450.63;5059226;28;45440;-56
2022/11/14 14:48:29;;;;;;;;;12.75;12.25;;;;;18.97;47.13;100454.09;5056584;28;45443;-57
2022/11/14 14:50:57;;;;;;;;;11.50;10.50;;;;;18.97;47.13;100448.84;5056212;28;45374;-56
2022/11/14 14:53:26;;;;;;;;;11.75;11.50;;;;;18.98;46.95;100454.94;5056375;28;45501;-56
2022/11/14 14:55:57;;;;;;;;;11.50;11.00;;;;;18.96;47.03;100443.69;5055819;28;47053;-55
2022/11/14 14:58:26;;;;;;;;;15.25;11.25;;;;;18.96;46.90;100452.38;5055901;28;45918;-56
2022/11/14 15:00:54;;;;;;;;;11.50;11.00;;;;;18.97;46.93;100458.50;5056044;28;45426;-56
2022/11/14 15:03:21;;;;;;;;;15.75;12.00;;;;;18.96;46.74;100462.91;5055976;28;45513;-56
2022/11/14 15:05:47;;;;;;;;;13.50;11.50;;;;;18.97;46.96;100461.13;5056658;28;46142;-56
2022/11/14 15:08:15;;;;;;;;;12.25;12.25;;;;;18.97;46.91;100458.50;5057494;28;45292;-56
2022/11/14 15:10:42;;;;;;;;;13.50;12.00;;;;;18.95;46.83;100455.13;5059999;28;45232;-56
2022/11/14 15:13:13;;;;;;;;;9.50;9.50;;;;;18.96;46.91;100454.19;5065569;28;45540;-56
2022/11/14 15:15:39;;;;;;;;;10.75;10.75;;;;;18.96;46.83;100454.19;5062539;28;46302;-57
2022/11/14 15:18:07;;;;;;;;;10.50;9.25;;;;;18.96;47.29;100456.81;5064899;28;45316;-56
2022/11/14 15:20:33;;;;;;;;;12.75;11.00;;;;;18.94;46.65;100449.03;5087202;28;45222;-55
2022/11/14 15:23:25;;;;;;;;;12.00;10.25;;;;;18.90;47.28;100438.75;5080985;28;44816;-56
2022/11/14 15:26:01;;;;;;;;;12.00;10.50;;;;;18.96;47.29;100446.31;5059414;28;45240;-57
2022/11/14 15:28:28;;;;;;;;;13.00;9.75;;;;;18.92;46.78;100440.34;5059932;28;45801;-57
2022/11/14 15:31:00;;;;;;;;;14.25;10.50;;;;;18.95;46.79;100447.22;5059189;28;45360;-56
2022/11/14 15:33:30;;;;;;;;;14.75;10.25;;;;;18.95;47.20;100444.59;5059489;28;45640;-56
2022/11/14 15:36:11;;;;;;;;;12.75;9.50;;;;;18.94;47.32;100441.16;5059197;28;46498;-56
2022/11/14 15:38:37;;;;;;;;;9.25;8.50;;;;;18.92;47.28;100437.72;5058967;28;45222;-55
2022/11/14 15:41:17;;;;;;;;;12.00;11.75;;;;;18.94;46.96;100441.16;5059351;28;45321;-55
2022/11/14 15:43:42;;;;;;;;;11.50;10.50;;;;;18.94;46.81;100442.91;5064568;28;45277;-56
2022/11/14 15:46:33;;;;;;;;;11.67;8.33;;;;;18.96;46.77;100448.94;5061268;28;45980;-56
2022/11/14 15:49:13;;;;;;;;;9.50;9.50;;;;;18.94;47.13;100446.41;5077868;28;45142;-54
2022/11/14 15:51:47;;;;;;;;;13.25;11.00;;;;;18.94;47.26;100454.28;5073696;28;45996;-54
2022/11/14 15:54:29;;;;;;;;;10.75;9.25;;;;;18.93;47.24;100456.94;5079997;28;44782;-56
2022/11/14 15:57:10;;;;;;;;;12.25;10.25;;;;;18.92;46.85;100452.63;5076498;28;45178;-58
2022/11/14 15:59:35;;;;;;;;;11.50;10.75;;;;;18.93;47.13;100447.31;5067796;28;45366;-55
2022/11/14 16:02:10;;;;;;;;;14.00;12.75;;;;;18.94;46.79;100456.03;5061092;28;52856;-56
2022/11/14 16:04:37;;;;;;;;;11.00;10.25;;;;;18.92;46.85;100456.09;5058477;28;45296;-56
2022/11/14 16:07:02;;;;;;;;;12.50;9.00;;;;;18.92;47.26;100463.13;5058005;28;45363;-56
2022/11/14 16:09:28;;;;;;;;;9.75;8.75;;;;;18.92;47.01;100465.75;5056567;28;45420;-56
2022/11/14 16:11:53;;;;;;;;;12.25;10.00;;;;;18.93;46.88;100477.94;5058236;28;45313;-55
2022/11/14 16:14:18;;;;;;;;;11.25;10.50;;;;;18.94;47.17;100474.41;5058899;28;45615;-56
2022/11/14 16:16:44;;;;;;;;;11.25;10.50;;;;;18.93;47.20;100477.94;5061412;28;47198;-56
2022/11/14 16:19:12;;;;;;;;;10.75;10.75;;;;;18.92;46.79;100471.00;5066225;28;45330;-56
2022/11/14 16:21:38;;;;;;;;;11.25;9.75;;;;;18.93;46.85;100476.22;5065750;28;45354;-56
2022/11/14 16:24:05;;;;;;;;;11.25;10.00;;;;;18.93;46.88;100475.31;5057846;28;45603;-56
2022/11/14 16:26:30;;;;;;;;;10.50;10.50;;;;;18.92;47.26;100471.84;5058441;28;46387;-55
2022/11/14 16:28:55;;;;;;;;;10.00;9.00;;;;;18.93;47.17;100477.94;5058155;28;45161;-56
2022/11/14 16:31:22;;;;;;;;;9.25;9.00;;;;;18.91;46.86;100479.81;5058176;28;45910;-56
2022/11/14 16:33:47;;;;;;;;;12.00;11.75;;;;;18.92;47.25;100481.50;5058272;28;45508;-56
2022/11/14 16:36:12;;;;;;;;;9.75;9.75;;;;;18.91;47.39;100482.44;5057649;28;52925;-56
2022/11/14 16:38:37;;;;;;;;;12.50;11.50;;;;;18.92;46.86;100481.50;5057847;28;45231;-56
2022/11/14 16:41:07;;;;;;;;;9.00;9.00;;;;;18.93;47.42;100493.69;5056682;28;45252;-56
2022/11/14 16:43:33;;;;;;;;;12.50;11.50;;;;;18.90;47.04;100480.75;5058579;28;45427;-56
2022/11/14 16:46:03;;;;;;;;;9.75;9.75;;;;;18.91;47.18;100487.69;5060853;28;45342;-57
2022/11/14 16:48:28;;;;;;;;;11.00;9.75;;;;;18.90;47.35;100483.38;5063197;28;45878;-56
2022/11/14 16:50:54;;;;;;;;;13.00;9.75;;;;;18.92;46.72;100489.38;5064877;28;45382;-56
2022/11/14 16:53:19;;;;;;;;;9.25;9.00;;;;;18.92;46.80;100489.38;5065582;28;45532;-56
2022/11/14 16:55:44;;;;;;;;;9.75;7.50;;;;;18.90;46.99;100486.84;5058406;28;46274;-56
2022/11/14 16:58:10;;;;;;;;;10.00;9.00;;;;;18.90;47.06;100494.72;5058474;28;45318;-56
2022/11/14 17:00:35;;;;;;;;;11.00;9.00;;;;;18.92;47.28;100486.75;5069296;28;50362;-55
2022/11/14 17:03:00;;;;;;;;;2.00;1.50;;;;;18.91;46.92;100485.06;5069446;28;45224;-55
2022/11/14 17:05:26;;;;;;;;;12.75;8.25;;;;;18.90;47.28;100486.84;5057601;28;47098;-56
2022/11/14 17:07:51;;;;;;;;;10.00;8.00;;;;;18.89;47.26;100482.53;5057647;28;45462;-55
2022/11/14 17:10:17;;;;;;;;;12.25;11.50;;;;;18.89;46.94;100481.69;5057561;28;45305;-56
2022/11/14 17:12:42;;;;;;;;;11.75;10.00;;;;;18.90;47.11;100483.38;5057449;28;45397;-56
2022/11/14 17:15:08;;;;;;;;;8.00;8.00;;;;;18.90;47.15;100489.47;5056999;28;53115;-56
2022/11/14 17:17:33;;;;;;;;;9.00;9.00;;;;;18.89;47.25;100481.69;5057698;28;45358;-56
2022/11/14 17:19:59;;;;;;;;;9.75;9.75;;;;;18.91;46.88;100485.06;5057582;28;45385;-55
2022/11/14 17:22:24;;;;;;;;;10.00;8.75;;;;;18.91;47.49;100482.44;5058066;28;45425;-54
2022/11/14 17:24:49;;;;;;;;;9.75;9.75;;;;;18.92;46.87;100478.88;5062032;28;46114;-54
2022/11/14 17:27:14;;;;;;;;;12.67;10.67;;;;;18.89;47.36;100477.28;5061720;28;50832;-55
2022/11/14 17:29:40;;;;;;;;;6.00;6.00;;;;;18.90;47.50;100481.59;5059358;28;45935;-55
2022/11/14 17:32:05;;;;;;;;;9.67;9.33;;;;;18.89;47.19;100474.66;5059904;28;45649;-54
2022/11/14 17:34:31;;;;;;;;;10.00;8.00;;;;;18.89;46.89;100477.28;5072098;28;45216;-55
2022/11/14 17:36:56;;;;;;;;;14.25;9.25;;;;;18.90;46.99;100475.50;5065355;28;45174;-57
2022/11/14 17:39:22;;;;;;;;;11.50;9.00;;;;;18.90;47.27;100473.72;5057507;28;45327;-57
2022/11/14 17:41:47;;;;;;;;;10.00;8.75;;;;;18.89;47.50;100465.94;5058397;28;45373;-55
2022/11/14 17:44:13;;;;;;;;;9.25;7.75;;;;;18.90;47.06;100467.63;5058600;28;45742;-56
2022/11/14 17:46:38;;;;;;;;;9.25;9.00;;;;;18.89;47.32;100469.38;5066908;28;45343;-56
2022/11/14 17:49:06;;;;;;;;;12.50;10.50;;;;;18.90;47.35;100472.88;5065840;28;45353;-57
2022/11/14 17:51:32;;;;;;;;;9.00;9.00;;;;;18.90;47.30;100465.00;5078742;28;44945;-55
2022/11/14 17:53:57;;;;;;;;;15.25;11.25;;;;;18.89;47.03;100471.19;5070145;28;45374;-56
2022/11/14 17:56:24;;;;;;;;;9.00;9.00;;;;;18.90;47.40;100465.00;5061046;28;45352;-56
2022/11/14 17:58:51;;;;;;;;;10.50;9.50;;;;;18.89;47.62;100466.75;5058735;28;45255;-56
2022/11/14 18:01:22;;;;;;;;;9.50;8.00;;;;;18.89;47.08;100463.31;5056956;28;45498;-56
2022/11/14 18:03:48;;;;;;;;;9.25;8.75;;;;;18.90;46.80;100467.63;5056575;28;45477;-56
2022/11/14 18:06:18;;;;;;;;;12.00;10.50;;;;;18.90;47.12;100478.13;5055291;28;45857;-55
2022/11/14 18:08:43;;;;;;;;;9.00;9.00;;;;;18.89;47.49;100479.06;5056721;28;45259;-57
2022/11/14 18:11:11;;;;;;;;;12.00;10.50;;;;;18.88;47.41;100480.81;5056909;28;45598;-57
2022/11/14 18:13:37;;;;;;;;;11.75;9.50;;;;;18.88;47.16;100480.00;5056745;28;47191;-57
2022/11/14 18:16:12;;;;;;;;;11.50;9.25;;;;;18.88;47.51;100475.56;5076947;28;45218;-57
2022/11/14 18:18:38;;;;;;;;;12.25;10.25;;;;;18.88;46.99;100470.31;5065296;28;45399;-58
2022/11/14 18:21:13;;;;;;;;;9.00;9.00;;;;;18.90;47.08;100478.13;5073369;28;45406;-56
2022/11/14 18:23:39;;;;;;;;;10.00;9.25;;;;;18.85;47.17;100473.97;5056982;28;45460;-57
2022/11/14 18:26:12;;;;;;;;;11.00;8.25;;;;;18.86;47.49;100482.69;5056638;28;45429;-56
2022/11/14 18:28:37;;;;;;;;;10.25;10.00;;;;;18.88;46.89;100491.31;5060472;28;45315;-57
2022/11/14 18:31:06;;;;;;;;;8.75;8.75;;;;;18.89;47.57;100484.31;5059366;28;45307;-56
2022/11/14 18:33:31;;;;;;;;;8.50;8.50;;;;;18.88;47.22;100480.81;5056469;28;46065;-57
2022/11/14 18:36:00;;;;;;;;;13.75;11.00;;;;;18.89;46.99;100484.31;5056326;28;45279;-56
2022/11/14 18:38:28;;;;;;;;;13.25;12.00;;;;;18.87;47.25;100488.78;5056733;28;45392;-56
2022/11/14 18:40:53;;;;;;;;;10.00;9.25;;;;;18.88;47.48;100490.50;5056885;28;45387;-56
2022/11/14 18:43:19;;;;;;;;;11.33;11.33;;;;;18.89;47.36;100484.31;5055971;28;65472;-56
2022/11/14 18:45:44;;;;;;;;;13.75;11.25;;;;;18.89;47.38;100481.69;5071459;28;45319;-56
2022/11/14 18:48:09;;;;;;;;;10.50;10.00;;;;;18.89;47.10;100486.94;5062019;28;45346;-57
2022/11/14 18:50:35;;;;;;;;;12.25;11.25;;;;;18.89;47.55;100481.69;5059494;28;49498;-56
2022/11/14 18:53:00;;;;;;;;;12.00;10.50;;;;;18.88;47.42;100490.50;5059481;28;45970;-56
2022/11/14 18:55:25;;;;;;;;;13.25;12.75;;;;;18.89;47.60;100492.19;5058934;28;45288;-56
2022/11/14 18:57:51;;;;;;;;;11.00;9.33;;;;;18.89;47.68;100489.56;5059249;28;55244;-57
2022/11/14 19:00:16;;;;;;;;;11.00;9.00;;;;;18.87;47.57;100484.38;5062360;28;45687;-56
2022/11/14 19:02:42;;;;;;;;;13.25;12.25;;;;;18.88;47.21;100486.06;5064209;28;45359;-56
2022/11/14 19:05:07;;;;;;;;;12.00;12.00;;;;;18.88;47.33;100480.81;5068300;28;53066;-56
2022/11/14 19:07:32;;;;;;;;;14.00;12.25;;;;;18.87;47.36;100478.28;5068050;28;45798;-56
2022/11/14 19:09:58;;;;;;;;;13.25;11.50;;;;;18.89;47.09;100481.69;5059853;28;45273;-56
2022/11/14 19:12:23;;;;;;;;;14.00;13.00;;;;;18.88;47.40;100474.75;5058771;28;61981;-56
2022/11/14 19:14:49;;;;;;;;;11.75;11.25;;;;;18.87;47.16;100467.78;5059372;28;45343;-56
2022/11/14 19:17:21;;;;;;;;;16.00;13.25;;;;;18.88;47.10;100474.75;5059236;28;45417;-56
2022/11/14 19:19:52;;;;;;;;;11.75;11.25;;;;;18.87;47.41;100476.50;5059403;28;45473;-56
2022/11/14 19:22:19;;;;;;;;;10.75;10.75;;;;;18.88;47.58;100474.75;5059147;28;47060;-57
2022/11/14 19:24:44;;;;;;;;;15.25;12.25;;;;;18.88;47.56;100469.47;5059468;28;45469;-57
2022/11/14 19:27:10;;;;;;;;;14.25;12.25;;;;;18.88;47.44;100469.47;5062651;28;48079;-57
2022/11/14 19:29:35;;;;;;;;;14.25;12.00;;;;;18.89;47.23;100479.06;5080105;28;45239;-57
2022/11/14 19:32:01;;;;;;;;;13.25;12.00;;;;;18.87;47.30;100475.66;5063450;28;46978;-55
2022/11/14 19:34:26;;;;;;;;;16.00;12.50;;;;;18.88;47.28;100485.25;5064666;28;45420;-57
2022/11/14 19:36:51;;;;;;;;;12.00;12.00;;;;;18.88;47.51;100480.00;5080251;28;45264;-56
2022/11/14 19:39:17;;;;;;;;;15.25;13.25;;;;;18.88;47.24;100480.00;5065672;28;45234;-57
2022/11/14 19:41:42;;;;;;;;;12.50;12.00;;;;;18.88;47.56;100480.81;5059650;28;47369;-55
2022/11/14 19:44:08;;;;;;;;;12.25;12.25;;;;;18.87;47.65;100488.78;5059283;28;45275;-56
2022/11/14 19:46:35;;;;;;;;;9.25;8.50;;;;;18.88;47.56;100491.31;5059671;28;45308;-58
2022/11/14 19:49:01;;;;;;;;;11.75;10.00;;;;;18.87;47.13;100479.13;5059970;28;45329;-57
2022/11/14 19:51:28;;;;;;;;;12.50;12.50;;;;;18.88;47.41;100483.44;5059195;28;45772;-56
2022/11/14 19:53:54;;;;;;;;;12.50;12.50;;;;;18.87;47.66;100480.91;5066722;28;45327;-57
2022/11/14 19:56:21;;;;;;;;;10.75;10.25;;;;;18.89;47.16;100492.19;5066630;28;45394;-56
2022/11/14 19:58:47;;;;;;;;;10.25;10.25;;;;;18.88;47.43;100480.00;5065081;28;45672;-57
2022/11/14 20:01:21;;;;;;;;;10.50;10.50;;;;;18.88;47.69;100486.06;5067910;28;45264;-57
2022/11/14 20:03:57;;;;;;;;;11.75;10.00;;;;;18.88;47.16;100480.00;5067589;28;45466;-57
2022/11/14 20:06:25;;;;;;;;;9.50;8.00;;;;;18.87;47.66;100480.91;5079088;28;44745;-56
2022/11/14 20:08:50;;;;;;;;;11.00;9.50;;;;;18.87;47.36;100483.53;5073675;28;45402;-55
2022/11/14 20:11:16;;;;;;;;;14.00;12.25;;;;;18.86;47.38;100490.56;5059958;28;46968;-56
2022/11/14 20:13:42;;;;;;;;;10.00;10.00;;;;;18.84;47.26;100484.56;5058846;28;45545;-56
2022/11/14 20:16:16;;;;;;;;;12.50;11.75;;;;;18.87;47.59;100492.25;5058515;28;45548;-56
2022/11/14 20:18:50;;;;;;;;;10.25;10.25;;;;;18.86;47.17;100493.19;5059298;28;45553;-57
2022/11/14 20:21:18;;;;;;;;;12.75;11.25;;;;;18.87;47.88;100488.78;5066130;28;47016;-57